Etusivu
METAR-TAF:

METAR-TAF

Lentoasemat :

Albertus Airport

Freeport, Illinois, Yhdysvallat

Leveyspiiri: 42-14-47N, Pituuspiiri: 089-34-56W, korkeus merenpinnasta: 262 m

Tämänhetkinen sää

Tämä raportti tehtiin 20 minuuttia sitten, kello 21.55 UTC
Tuuli 4 kn kaakosta
Lämpötila 3°C
Kosteus 70%
Ilmanpaine 1024 hPa
Näkyvyys: 11.3 km
selkeää

METAR: KFEP 162155Z AUTO 14004KT 7SM CLR 03/M02 A3025 RMK AO2 T00311017

Aika: 16:15 (22:15 UTC)


TAF: puuttuu

Säähavainnot ja -ennusteet yli 4000 lentoasemalta (METAR- ja TAF-raportit).

Käytössä olevat sääasemat on merkitty karttaan keltaisilla ja punaisilla pisteillä.

Aseta hiiri pisteen päälle nähdäksesi sääaseman nimen.

Klikkaa sitten nähdäksesi säähavainnot ja -ennusteet.

Kartan vaihtaminen: klikkaa mustalla rastilla varustettuja vihreitä pisteitä, niin voit zoomata sisään; viivalla varustettua vihreää pistettä, niin voit zoomata ulos tai vihreitä nuolia, niin pääset viereisille kartoille.


METAR-TAF: